createdAt,value
2018-08-18T00:02:27.998Z,18.40
2018-08-18T00:04:56.488Z,18.40
2018-08-18T00:07:25.388Z,18.40
2018-08-18T00:09:54.053Z,18.40
2018-08-18T00:12:28.343Z,18.30
2018-08-18T00:14:57.113Z,18.30
2018-08-18T00:17:25.525Z,18.20
2018-08-18T00:19:54.790Z,18.20
2018-08-18T00:22:23.164Z,18.10
2018-08-18T00:24:58.399Z,18.20
2018-08-18T00:27:27.526Z,18.10
2018-08-18T00:30:01.198Z,18.10
2018-08-18T00:32:29.927Z,18.00
2018-08-18T00:34:58.330Z,18.00
2018-08-18T00:37:26.916Z,18.10
2018-08-18T00:39:55.703Z,18.10
2018-08-18T00:42:24.373Z,18.20
2018-08-18T00:44:53.085Z,18.10
2018-08-18T00:47:21.492Z,18.10
2018-08-18T00:49:50.166Z,18.00
2018-08-18T00:52:18.538Z,18.00
2018-08-18T00:54:46.840Z,17.90
2018-08-18T00:57:26.593Z,18.00
2018-08-18T00:59:55.895Z,18.00
2018-08-18T01:02:24.340Z,17.90
2018-08-18T01:04:58.941Z,17.90
2018-08-18T01:07:28.870Z,17.90
2018-08-18T01:09:57.993Z,17.80
2018-08-18T01:12:26.989Z,17.80
2018-08-18T01:14:55.765Z,17.80
2018-08-18T01:17:24.497Z,17.90
2018-08-18T01:19:54.220Z,17.90
2018-08-18T01:22:22.584Z,17.80
2018-08-18T01:24:51.769Z,17.80
2018-08-18T01:27:20.200Z,17.80
2018-08-18T01:29:55.955Z,17.80
2018-08-18T01:32:24.447Z,17.80
2018-08-18T01:34:53.355Z,17.80
2018-08-18T01:37:21.876Z,17.70
2018-08-18T01:39:53.217Z,17.60
2018-08-18T01:42:21.784Z,17.70
2018-08-18T01:44:52.331Z,17.60
2018-08-18T01:47:20.707Z,17.60
2018-08-18T01:49:49.079Z,17.60
2018-08-18T01:52:20.540Z,17.50
2018-08-18T01:54:48.891Z,17.50
2018-08-18T01:57:20.261Z,17.60
2018-08-18T01:59:48.843Z,17.60
2018-08-18T02:02:27.129Z,17.50
2018-08-18T02:05:02.391Z,17.60
2018-08-18T02:07:33.856Z,17.60
2018-08-18T02:10:02.384Z,17.50
2018-08-18T02:12:30.759Z,17.40
2018-08-18T02:15:00.011Z,17.40
2018-08-18T02:17:35.827Z,17.50
2018-08-18T02:20:05.660Z,17.40
2018-08-18T02:22:33.989Z,17.40
2018-08-18T02:25:02.409Z,17.40
2018-08-18T02:27:30.835Z,17.30
2018-08-18T02:30:22.541Z,17.30
2018-08-18T02:32:51.009Z,17.30
2018-08-18T02:35:19.468Z,17.20
2018-08-18T02:37:47.817Z,17.20
2018-08-18T02:40:17.396Z,17.30
2018-08-18T02:42:45.827Z,17.20
2018-08-18T02:45:15.341Z,17.30
2018-08-18T02:47:43.702Z,17.30
2018-08-18T02:50:13.241Z,17.10
2018-08-18T02:52:41.672Z,17.20
2018-08-18T02:55:11.257Z,17.20
2018-08-18T02:57:40.807Z,17.00
2018-08-18T03:00:14.435Z,17.00
2018-08-18T03:02:42.782Z,17.00
2018-08-18T03:05:11.129Z,16.90
2018-08-18T03:07:43.763Z,16.90
2018-08-18T03:10:17.520Z,16.90
2018-08-18T03:12:46.602Z,16.90
2018-08-18T03:16:23.178Z,17.00
2018-08-18T03:18:55.448Z,16.90
2018-08-18T03:21:30.031Z,16.90
2018-08-18T03:24:05.235Z,17.00
2018-08-18T03:26:39.049Z,16.90
2018-08-18T03:29:07.628Z,16.80
2018-08-18T03:31:36.409Z,16.80
2018-08-18T03:34:05.117Z,16.70
2018-08-18T03:36:37.470Z,16.70
2018-08-18T03:39:08.318Z,16.70
2018-08-18T03:41:36.688Z,16.60
2018-08-18T03:44:05.106Z,16.50
2018-08-18T03:46:33.532Z,16.50
2018-08-18T03:49:01.977Z,16.40
2018-08-18T03:51:35.631Z,16.40
2018-08-18T03:54:04.064Z,16.30
2018-08-18T03:56:32.433Z,16.40
2018-08-18T03:59:00.934Z,16.30
2018-08-18T04:02:01.755Z,16.30
2018-08-18T04:04:34.299Z,16.20
2018-08-18T04:07:04.355Z,16.20
2018-08-18T04:09:33.770Z,16.10
2018-08-18T04:12:03.529Z,16.20
2018-08-18T04:14:37.372Z,16.20
2018-08-18T04:17:12.961Z,16.20
2018-08-18T04:19:41.273Z,16.20
2018-08-18T04:22:09.832Z,16.20
2018-08-18T04:24:43.621Z,16.20
2018-08-18T04:27:11.995Z,16.30
2018-08-18T04:29:40.460Z,16.30
2018-08-18T04:32:08.962Z,16.40
2018-08-18T04:34:37.420Z,16.40
2018-08-18T04:37:06.003Z,16.40
2018-08-18T04:39:34.438Z,16.40
2018-08-18T04:42:02.890Z,16.30
2018-08-18T04:44:31.309Z,16.40
2018-08-18T04:46:59.807Z,16.40
2018-08-18T04:49:28.219Z,16.40
2018-08-18T04:51:56.631Z,16.40
2018-08-18T04:54:31.646Z,16.50
2018-08-18T04:57:00.128Z,16.60
2018-08-18T04:59:28.571Z,16.50
2018-08-18T05:01:57.192Z,16.50
2018-08-18T05:04:25.583Z,16.60
2018-08-18T05:06:53.972Z,16.60
2018-08-18T05:09:22.393Z,16.50
2018-08-18T05:11:50.764Z,16.60
2018-08-18T05:14:19.162Z,16.70
2018-08-18T05:16:47.639Z,16.80
2018-08-18T05:19:16.018Z,16.70
2018-08-18T05:21:44.451Z,16.70
2018-08-18T05:24:22.789Z,16.70
2018-08-18T05:26:52.157Z,16.80
2018-08-18T05:29:20.548Z,16.90
2018-08-18T05:31:48.962Z,17.10
2018-08-18T05:34:17.288Z,17.30
2018-08-18T05:36:45.737Z,17.30
2018-08-18T05:39:14.258Z,17.20
2018-08-18T05:41:42.641Z,17.40
2018-08-18T05:44:11.011Z,17.40
2018-08-18T05:46:39.375Z,17.50
2018-08-18T05:49:14.109Z,17.70
2018-08-18T05:51:44.747Z,17.90
2018-08-18T05:54:14.123Z,18.00
2018-08-18T05:56:43.488Z,18.10
2018-08-18T05:59:11.801Z,18.40
2018-08-18T06:01:41.005Z,18.60
2018-08-18T06:04:15.782Z,18.90
2018-08-18T06:06:44.933Z,19.40
2018-08-18T06:09:14.416Z,19.70
2018-08-18T06:11:42.888Z,19.50
2018-08-18T06:14:12.195Z,19.50
2018-08-18T06:16:41.080Z,19.90
2018-08-18T06:19:09.775Z,20.20
2018-08-18T06:21:38.175Z,19.80
2018-08-18T06:24:06.677Z,19.50
2018-08-18T06:26:35.071Z,19.20
2018-08-18T06:29:03.440Z,19.10
2018-08-18T06:31:31.789Z,19.40
2018-08-18T06:34:00.407Z,19.70
2018-08-18T06:36:28.728Z,19.90
2018-08-18T06:38:57.099Z,19.80
2018-08-18T06:41:25.485Z,20.50
2018-08-18T06:43:53.802Z,21.00
2018-08-18T06:46:22.209Z,21.10
2018-08-18T06:48:50.633Z,21.10
2018-08-18T06:51:19.056Z,22.30
2018-08-18T06:53:48.326Z,23.50
2018-08-18T06:56:16.756Z,24.60
2018-08-18T06:58:45.159Z,25.20
2018-08-18T07:01:13.446Z,24.20
2018-08-18T07:03:47.170Z,23.10
2018-08-18T07:06:16.863Z,21.70
2018-08-18T07:08:53.793Z,20.70
2018-08-18T07:11:22.088Z,20.30
2018-08-18T07:13:50.461Z,20.50
2018-08-18T07:16:18.818Z,19.90
2018-08-18T07:18:47.127Z,19.30
2018-08-18T07:21:15.464Z,19.40
2018-08-18T07:23:43.795Z,19.50
2018-08-18T07:26:12.117Z,19.00
2018-08-18T07:28:40.497Z,19.00
2018-08-18T07:31:08.839Z,19.20
2018-08-18T07:33:37.149Z,19.00
2018-08-18T07:36:05.607Z,19.30
2018-08-18T07:38:33.907Z,19.40
2018-08-18T07:41:02.259Z,19.50
2018-08-18T07:43:32.052Z,19.70
2018-08-18T07:46:01.947Z,19.90
2018-08-18T07:48:30.551Z,20.40
2018-08-18T07:50:58.865Z,20.40
2018-08-18T07:53:27.236Z,20.80
2018-08-18T07:55:55.593Z,20.70
2018-08-18T07:58:24.746Z,20.90
2018-08-18T08:00:55.413Z,21.10
2018-08-18T08:03:23.754Z,21.50
2018-08-18T08:05:52.102Z,21.80
2018-08-18T08:08:20.419Z,21.60
2018-08-18T08:10:48.826Z,21.60
2018-08-18T08:13:17.155Z,21.80
2018-08-18T08:15:46.064Z,21.70
2018-08-18T08:18:15.369Z,21.60
2018-08-18T08:20:43.833Z,21.40
2018-08-18T08:23:12.257Z,21.60
2018-08-18T08:25:40.602Z,21.60
2018-08-18T08:28:08.939Z,21.30
2018-08-18T08:30:37.298Z,21.40
2018-08-18T08:33:05.695Z,20.80
2018-08-18T08:35:37.227Z,20.60
2018-08-18T08:38:05.573Z,20.60
2018-08-18T08:40:33.975Z,20.90
2018-08-18T08:43:02.452Z,21.20
2018-08-18T08:45:30.781Z,22.00
2018-08-18T08:47:59.114Z,23.60
2018-08-18T08:50:27.458Z,24.30
2018-08-18T08:52:56.835Z,25.40
2018-08-18T08:55:26.571Z,26.10
2018-08-18T08:57:54.935Z,25.60
2018-08-18T09:00:23.209Z,25.70
2018-08-18T09:02:51.565Z,25.10
2018-08-18T09:05:20.124Z,24.50
2018-08-18T09:07:48.500Z,24.30
2018-08-18T09:10:17.260Z,24.00
2018-08-18T09:12:45.566Z,23.20
2018-08-18T09:15:15.066Z,22.80
2018-08-18T09:17:43.456Z,22.80
2018-08-18T09:20:14.245Z,22.80
2018-08-18T09:23:00.414Z,22.50
2018-08-18T09:25:30.450Z,22.40
2018-08-18T09:28:00.159Z,22.50
2018-08-18T09:30:29.769Z,22.60
2018-08-18T09:33:02.259Z,22.40
2018-08-18T09:35:32.975Z,22.60
2018-08-18T09:38:01.895Z,22.60
2018-08-18T09:40:31.981Z,22.40
2018-08-18T09:43:03.910Z,22.20
2018-08-18T09:45:32.360Z,21.90
2018-08-18T09:48:00.624Z,21.90
2018-08-18T09:50:28.936Z,22.00
2018-08-18T09:52:57.320Z,22.00
2018-08-18T09:55:25.717Z,22.00
2018-08-18T09:57:54.058Z,22.10
2018-08-18T10:00:26.711Z,22.20
2018-08-18T10:02:55.028Z,22.20
2018-08-18T10:05:23.455Z,22.00
2018-08-18T10:07:51.878Z,22.00
2018-08-18T10:10:20.228Z,22.00
2018-08-18T10:12:48.596Z,22.00
2018-08-18T10:15:17.115Z,22.00
2018-08-18T10:17:45.414Z,22.10
2018-08-18T10:20:13.711Z,22.30
2018-08-18T10:22:41.989Z,22.40
2018-08-18T10:25:10.326Z,22.30
2018-08-18T10:27:38.611Z,22.20
2018-08-18T10:30:06.985Z,22.10
2018-08-18T10:32:39.498Z,22.10
2018-08-18T10:35:07.977Z,22.10
2018-08-18T10:37:36.261Z,22.00
2018-08-18T10:40:09.471Z,22.00
2018-08-18T10:42:37.843Z,21.90
2018-08-18T10:45:06.852Z,21.90
2018-08-18T10:47:35.163Z,22.00
2018-08-18T10:50:14.703Z,22.00
2018-08-18T10:52:54.461Z,22.10
2018-08-18T10:55:22.760Z,22.00
2018-08-18T10:57:57.796Z,21.90
2018-08-18T11:00:27.473Z,22.00
2018-08-18T11:02:56.969Z,22.20
2018-08-18T11:05:26.493Z,22.30
2018-08-18T11:08:00.809Z,22.20
2018-08-18T11:10:30.714Z,22.20
2018-08-18T11:12:59.062Z,22.30
2018-08-18T11:15:27.515Z,22.20
2018-08-18T11:17:56.271Z,22.00
2018-08-18T11:20:25.765Z,22.00
2018-08-18T11:23:05.114Z,21.90
2018-08-18T11:25:35.441Z,21.90
2018-08-18T11:28:03.909Z,21.90
2018-08-18T11:30:32.534Z,21.90
2018-08-18T11:33:01.573Z,21.90
2018-08-18T11:35:30.381Z,22.00
2018-08-18T11:38:06.173Z,22.10
2018-08-18T11:40:34.588Z,22.10
2018-08-18T11:43:04.732Z,22.20
2018-08-18T11:45:34.357Z,22.40
2018-08-18T11:48:15.667Z,22.40
2018-08-18T11:50:44.538Z,22.30
2018-08-18T11:53:12.851Z,22.30
2018-08-18T11:55:41.193Z,22.20
2018-08-18T11:58:14.789Z,22.00
2018-08-18T12:00:44.699Z,22.10
2018-08-18T12:03:14.204Z,22.20
2018-08-18T12:05:50.139Z,22.40
2018-08-18T12:08:20.477Z,22.60
2018-08-18T12:10:50.023Z,22.70
2018-08-18T12:13:18.444Z,22.80
2018-08-18T12:15:58.708Z,22.60
2018-08-18T12:18:28.603Z,22.40
2018-08-18T12:21:01.118Z,22.30
2018-08-18T12:23:29.986Z,22.40
2018-08-18T12:26:03.343Z,22.40
2018-08-18T12:28:37.215Z,22.40
2018-08-18T12:31:06.733Z,22.40
2018-08-18T12:33:35.041Z,22.50
2018-08-18T12:36:03.386Z,22.50
2018-08-18T12:38:32.452Z,22.40
2018-08-18T12:41:01.002Z,22.40
2018-08-18T12:43:35.191Z,22.50
2018-08-18T12:46:04.467Z,22.50
2018-08-18T12:48:35.819Z,22.60
2018-08-18T12:51:05.775Z,22.70
2018-08-18T12:53:50.126Z,22.70
2018-08-18T12:56:21.429Z,22.70
2018-08-18T12:58:49.820Z,22.70
2018-08-18T13:01:36.476Z,22.80
2018-08-18T13:04:06.655Z,22.80
2018-08-18T13:06:39.178Z,22.90
2018-08-18T13:09:09.533Z,23.00
2018-08-18T13:11:37.925Z,22.90
2018-08-18T13:14:06.575Z,22.90
2018-08-18T13:16:35.778Z,23.00
2018-08-18T13:19:04.194Z,22.90
2018-08-18T13:21:32.543Z,22.80
2018-08-18T13:24:01.887Z,23.00
2018-08-18T13:26:30.512Z,23.00
2018-08-18T13:28:58.755Z,23.10
2018-08-18T13:31:44.323Z,23.00
2018-08-18T13:34:14.995Z,23.00
2018-08-18T13:36:44.076Z,23.00
2018-08-18T13:39:18.090Z,22.90
2018-08-18T13:41:47.242Z,23.00
2018-08-18T13:44:28.671Z,23.20
2018-08-18T13:46:57.016Z,23.40
2018-08-18T13:49:26.244Z,23.20
2018-08-18T13:51:54.605Z,23.20
2018-08-18T13:54:22.910Z,23.20
2018-08-18T13:56:51.291Z,23.20
2018-08-18T13:59:44.782Z,23.30
2018-08-18T14:02:13.363Z,23.40
2018-08-18T14:04:42.520Z,23.40
2018-08-18T14:07:11.170Z,23.50
2018-08-18T14:09:43.030Z,23.50
2018-08-18T14:12:13.744Z,23.40
2018-08-18T14:14:42.155Z,23.30
2018-08-18T14:17:10.821Z,23.40
2018-08-18T14:19:39.128Z,23.50
2018-08-18T14:22:08.836Z,23.40
2018-08-18T14:24:38.255Z,23.40
2018-08-18T14:27:12.523Z,23.40
2018-08-18T14:29:40.837Z,23.40
2018-08-18T14:32:14.925Z,23.40
2018-08-18T14:34:45.841Z,23.50
2018-08-18T14:37:14.116Z,23.50
2018-08-18T14:39:43.161Z,23.50
2018-08-18T14:42:11.450Z,23.40
2018-08-18T14:44:39.743Z,23.40
2018-08-18T14:47:08.008Z,23.40
2018-08-18T14:49:36.331Z,23.50
2018-08-18T14:52:04.651Z,23.60
2018-08-18T14:54:33.272Z,23.70
2018-08-18T14:57:02.657Z,23.70
2018-08-18T14:59:33.246Z,23.70
2018-08-18T15:02:02.738Z,23.80
2018-08-18T15:04:31.163Z,23.70
2018-08-18T15:06:59.447Z,23.60
2018-08-18T15:09:35.881Z,23.60
2018-08-18T15:12:04.208Z,23.80
2018-08-18T15:14:33.037Z,23.80
2018-08-18T15:17:01.383Z,23.60
2018-08-18T15:19:29.667Z,23.50
2018-08-18T15:21:59.018Z,23.60
2018-08-18T15:24:27.349Z,23.60
2018-08-18T15:26:55.622Z,23.50
2018-08-18T15:29:23.939Z,23.60
2018-08-18T15:31:52.255Z,23.80
2018-08-18T15:34:20.527Z,23.70
2018-08-18T15:36:48.795Z,23.70
2018-08-18T15:39:17.239Z,23.70
2018-08-18T15:41:45.523Z,23.80
2018-08-18T15:44:13.810Z,23.80
2018-08-18T15:46:42.165Z,23.80
2018-08-18T15:49:12.395Z,23.80
2018-08-18T15:51:40.679Z,23.80
2018-08-18T15:54:08.988Z,23.70
2018-08-18T15:56:37.265Z,23.70
2018-08-18T15:59:05.591Z,23.70
2018-08-18T16:01:34.966Z,23.60
2018-08-18T16:04:03.993Z,23.60
2018-08-18T16:06:32.296Z,23.70
2018-08-18T16:09:00.589Z,23.70
2018-08-18T16:11:28.885Z,23.70
2018-08-18T16:13:57.256Z,23.70
2018-08-18T16:16:25.518Z,23.70
2018-08-18T16:19:00.733Z,23.80
2018-08-18T16:21:30.525Z,23.80
2018-08-18T16:23:58.821Z,23.80
2018-08-18T16:26:27.353Z,23.80
2018-08-18T16:28:55.646Z,23.70
2018-08-18T16:31:23.954Z,23.70
2018-08-18T16:33:52.884Z,23.70
2018-08-18T16:36:21.220Z,23.70
2018-08-18T16:38:49.546Z,23.80
2018-08-18T16:41:17.864Z,23.80
2018-08-18T16:43:46.470Z,23.80
2018-08-18T16:46:25.833Z,23.70
2018-08-18T16:48:54.475Z,23.70
2018-08-18T16:51:22.922Z,23.60
2018-08-18T16:53:51.244Z,23.60
2018-08-18T16:56:23.325Z,23.60
2018-08-18T16:58:52.774Z,23.60
2018-08-18T17:01:21.562Z,23.50
2018-08-18T17:03:49.889Z,23.50
2018-08-18T17:06:18.168Z,23.50
2018-08-18T17:08:46.460Z,23.50
2018-08-18T17:11:14.770Z,23.40
2018-08-18T17:13:43.039Z,23.30
2018-08-18T17:16:11.349Z,23.30
2018-08-18T17:18:39.664Z,23.30
2018-08-18T17:21:08.486Z,23.30
2018-08-18T17:23:38.043Z,23.20
2018-08-18T17:26:06.513Z,23.20
2018-08-18T17:28:35.291Z,23.10
2018-08-18T17:31:04.755Z,23.10
2018-08-18T17:33:33.358Z,23.00
2018-08-18T17:36:01.678Z,23.00
2018-08-18T17:38:30.013Z,22.90
2018-08-18T17:40:58.353Z,22.90
2018-08-18T17:43:26.634Z,22.80
2018-08-18T17:45:56.189Z,22.80
2018-08-18T17:48:25.818Z,22.70
2018-08-18T17:50:54.651Z,22.60
2018-08-18T17:53:23.147Z,22.60
2018-08-18T17:56:05.897Z,22.60
2018-08-18T17:58:34.202Z,22.50
2018-08-18T18:01:03.096Z,22.50
2018-08-18T18:03:31.490Z,22.30
2018-08-18T18:05:59.780Z,22.20
2018-08-18T18:08:28.075Z,22.10
2018-08-18T18:10:56.415Z,22.00
2018-08-18T18:13:27.793Z,22.00
2018-08-18T18:15:56.076Z,22.00
2018-08-18T18:18:29.335Z,21.80
2018-08-18T18:20:57.631Z,21.80
2018-08-18T18:23:25.906Z,21.70
2018-08-18T18:25:54.205Z,21.70
2018-08-18T18:28:22.558Z,21.60
2018-08-18T18:30:52.446Z,21.60
2018-08-18T18:33:21.125Z,21.60
2018-08-18T18:35:50.258Z,21.50
2018-08-18T18:38:18.555Z,21.40
2018-08-18T18:40:46.884Z,21.30
2018-08-18T18:43:15.188Z,21.30
2018-08-18T18:45:43.599Z,21.30
2018-08-18T18:48:15.464Z,21.20
2018-08-18T18:50:45.175Z,21.10
2018-08-18T18:53:13.643Z,21.00
2018-08-18T18:55:50.270Z,21.00
2018-08-18T18:58:18.600Z,20.90
2018-08-18T19:00:52.637Z,20.80
2018-08-18T19:03:20.919Z,20.80
2018-08-18T19:05:49.418Z,20.70
2018-08-18T19:08:20.209Z,20.60
2018-08-18T19:10:48.759Z,20.60
2018-08-18T19:13:17.345Z,20.50
2018-08-18T19:15:45.752Z,20.40
2018-08-18T19:18:14.488Z,20.30
2018-08-18T19:20:42.817Z,20.20
2018-08-18T19:23:15.193Z,20.20
2018-08-18T19:25:44.650Z,20.20
2018-08-18T19:28:16.122Z,20.20
2018-08-18T19:30:44.393Z,20.20
2018-08-18T19:33:13.914Z,20.10
2018-08-18T19:35:43.402Z,20.00
2018-08-18T19:38:12.098Z,19.90
2018-08-18T19:40:41.658Z,19.80
2018-08-18T19:43:13.493Z,19.70
2018-08-18T19:45:41.867Z,19.70
2018-08-18T19:48:10.484Z,19.60
2018-08-18T19:50:49.799Z,19.60
2018-08-18T19:53:21.016Z,19.50
2018-08-18T19:55:49.595Z,19.50
2018-08-18T19:58:17.893Z,19.50
2018-08-18T20:00:46.167Z,19.50
2018-08-18T20:03:21.520Z,19.40
2018-08-18T20:05:49.872Z,19.30
2018-08-18T20:08:19.882Z,19.20
2018-08-18T20:10:53.562Z,19.20
2018-08-18T20:13:22.738Z,19.10
2018-08-18T20:15:52.543Z,19.00
2018-08-18T20:18:20.854Z,19.00
2018-08-18T20:20:49.134Z,19.00
2018-08-18T20:23:18.903Z,19.00
2018-08-18T20:25:47.960Z,19.00
2018-08-18T20:28:16.264Z,18.90
2018-08-18T20:30:44.543Z,18.90
2018-08-18T20:33:12.869Z,18.80
2018-08-18T20:35:41.143Z,18.60
2018-08-18T20:38:09.418Z,18.50
2018-08-18T20:40:37.738Z,18.30
2018-08-18T20:43:06.030Z,18.20
2018-08-18T20:45:39.641Z,18.10
2018-08-18T20:48:07.926Z,18.20
2018-08-18T20:50:36.296Z,18.20
2018-08-18T20:53:11.762Z,18.30
2018-08-18T20:55:41.547Z,18.40
2018-08-18T20:58:09.874Z,18.40
2018-08-18T21:00:38.197Z,18.40
2018-08-18T21:03:06.502Z,18.30
2018-08-18T21:05:34.794Z,18.30
2018-08-18T21:08:20.815Z,18.20
2018-08-18T21:10:49.438Z,18.10
2018-08-18T21:13:17.808Z,18.00
2018-08-18T21:15:46.545Z,17.90
2018-08-18T21:18:18.378Z,17.80
2018-08-18T21:20:47.279Z,17.60
2018-08-18T21:23:16.050Z,17.50
2018-08-18T21:25:47.406Z,17.50
2018-08-18T21:28:16.963Z,17.30
2018-08-18T21:30:45.255Z,17.40
2018-08-18T21:33:13.708Z,17.30
2018-08-18T21:35:42.047Z,17.40
2018-08-18T21:38:10.452Z,17.40
2018-08-18T21:40:38.751Z,17.30
2018-08-18T21:43:14.908Z,17.30
2018-08-18T21:45:43.208Z,17.20
2018-08-18T21:48:11.482Z,17.10
2018-08-18T21:50:39.834Z,17.00
2018-08-18T21:53:08.155Z,16.80
2018-08-18T21:55:36.464Z,16.70
2018-08-18T21:58:04.734Z,16.80
2018-08-18T22:00:38.380Z,16.80
2018-08-18T22:03:06.911Z,16.80
2018-08-18T22:05:35.245Z,16.70
2018-08-18T22:08:03.576Z,16.60
2018-08-18T22:10:32.058Z,16.70
2018-08-18T22:13:00.400Z,16.70
2018-08-18T22:15:31.810Z,16.70
2018-08-18T22:18:00.127Z,16.70
2018-08-18T22:20:28.668Z,16.80
2018-08-18T22:22:56.964Z,16.80
2018-08-18T22:25:25.244Z,16.80
2018-08-18T22:27:54.240Z,16.80
2018-08-18T22:30:26.958Z,16.80
2018-08-18T22:32:55.294Z,16.70
2018-08-18T22:35:23.587Z,16.70
2018-08-18T22:37:52.004Z,16.60
2018-08-18T22:40:20.295Z,16.60
2018-08-18T22:42:48.565Z,16.60
2018-08-18T22:45:28.121Z,16.50
2018-08-18T22:47:56.447Z,16.50
2018-08-18T22:50:24.760Z,16.50
2018-08-18T22:52:54.091Z,16.50
2018-08-18T22:55:22.427Z,16.50
2018-08-18T22:57:56.013Z,16.30
2018-08-18T23:00:24.388Z,16.20
2018-08-18T23:02:53.128Z,16.20
2018-08-18T23:05:21.793Z,16.10
2018-08-18T23:07:51.825Z,15.90
2018-08-18T23:10:20.205Z,15.90
2018-08-18T23:12:48.560Z,15.90
2018-08-18T23:15:17.273Z,15.80
2018-08-18T23:17:45.601Z,15.90
2018-08-18T23:20:13.978Z,15.80
2018-08-18T23:22:54.164Z,15.90
2018-08-18T23:25:23.592Z,15.90
2018-08-18T23:27:51.912Z,15.90
2018-08-18T23:30:25.797Z,15.80
2018-08-18T23:32:54.066Z,15.70
2018-08-18T23:35:24.182Z,15.70
2018-08-18T23:37:53.086Z,15.60
2018-08-18T23:40:21.409Z,15.60
2018-08-18T23:42:49.718Z,15.60
2018-08-18T23:45:18.055Z,15.60
2018-08-18T23:47:54.549Z,15.70
2018-08-18T23:50:22.863Z,15.70
2018-08-18T23:53:05.856Z,15.70
2018-08-18T23:55:34.258Z,15.60
2018-08-18T23:58:02.585Z,15.50
